Latest Weather Observations for Mount Hotham Airport

IDV60801

Issued at 8:31 pm EST Thursday 26 May 2016 (issued every 30 minutes, with the page automatically refreshed every 10 minutes)

About weather observations | Map of weather stations | Latest weather observations for VIC | Other Formats
Station Details ID: 083055 Name: MOUNT HOTHAM AIRPORT Lat: -37.05 Lon: 147.33 Height: 1295.4 m
Data from the previous 72 hours. | See also: Recent months at Mount Hotham Airport
Date/Time
EST
Temp
°C
App
Temp
°C
Dew
Point
Rel
Hum
%
Delta-T
°C
Wind Press
QNH
hPa
Press
MSL
hPa
Rain
since 9 am
mm
Dir
 
Spd
km/h
Gust
km/h
Spd
kts
Gust
kts
26/08:30pm 2.7 -1.4 2.4 98 0.1 SSW 13 19 7 10 1003.0 - 4.4
26/08:00pm 2.2 -2.0 1.6 96 0.3 SSW 13 22 7 12 1002.9 - 4.4
26/07:30pm 2.4 -1.4 2.0 97 0.2 SW 11 17 6 9 1002.6 - 4.4
26/07:00pm 2.7 -1.8 2.1 96 0.3 SSW 15 26 8 14 1002.5 - 4.2
26/06:58pm 2.7 -1.8 2.3 97 0.2 SW 15 26 8 14 1002.6 - 4.0
26/06:57pm 2.7 -1.8 2.3 97 0.2 SW 15 26 8 14 1002.6 - 4.0
26/06:42pm 2.3 -2.7 1.4 94 0.4 S 17 33 9 18 1002.4 - 3.4
26/06:41pm 2.3 -2.7 1.4 94 0.4 S 17 33 9 18 1002.4 - 3.4
26/06:30pm 3.5 -0.2 2.5 93 0.4 W 11 20 6 11 1002.0 - 2.8
26/06:00pm 3.3 -0.8 2.0 91 0.6 WNW 13 22 7 12 1001.5 1002.1 2.8
26/05:30pm 3.7 -0.1 1.9 88 0.8 W 11 20 6 11 1001.2 - 2.8
26/05:00pm 3.9 -1.4 1.8 86 0.9 WNW 19 28 10 15 1000.7 - 2.8
26/04:30pm 4.5 0.7 2.0 84 1.1 W 11 22 6 12 1000.8 - 2.8
26/04:00pm 4.9 -0.4 2.1 82 1.2 W 19 33 10 18 1000.5 - 2.8
26/03:30pm 5.3 0.5 2.7 83 1.2 W 17 30 9 16 1000.4 - 2.8
26/03:00pm 5.7 1.0 2.9 82 1.3 W 17 32 9 17 1000.2 1000.8 2.8
26/02:30pm 5.5 0.1 2.7 82 1.2 W 20 39 11 21 1000.2 - 2.8
26/02:00pm 5.5 -0.2 2.8 83 1.2 W 22 33 12 18 1000.2 - 2.8
26/01:30pm 4.8 0.9 3.5 91 0.6 WNW 13 20 7 11 1000.3 - 2.8
26/01:00pm 4.3 1.1 3.1 92 0.5 WNW 9 15 5 8 1000.4 - 2.8
26/12:30pm 3.9 -1.5 2.7 92 0.5 NW 20 30 11 16 1000.7 - 2.8
26/12:00pm 4.5 -0.6 3.3 92 0.5 NW 19 26 10 14 1001.0 1001.6 2.6
26/11:30am 4.3 -0.8 3.1 92 0.5 NW 19 30 10 16 1001.6 - 2.6
26/11:00am 4.2 -0.1 3.3 94 0.4 NW 15 24 8 13 1002.2 - 2.6
26/10:30am 3.9 0.0 3.2 95 0.3 NW 13 20 7 11 1002.8 - 2.6
26/10:01am 3.2 0.3 2.8 97 0.2 NNW 7 9 4 5 1002.9 - 2.4
26/10:00am 3.1 0.2 2.7 97 0.2 NNW 7 11 4 6 1002.9 - 2.4
26/09:41am 3.1 0.4 2.5 96 0.3 NNW 6 9 3 5 1003.2 - 1.6
26/09:40am 3.1 0.4 2.5 96 0.3 NNW 6 9 3 5 1003.2 - 1.6
26/09:30am 3.2 0.3 2.5 95 0.3 NNW 7 9 4 5 1003.2 - 0.6
26/09:00am 3.3 0.6 2.9 97 0.2 NNE 6 7 3 4 1003.3 1003.9 0.4
26/08:30am 3.3 0.4 2.7 96 0.3 NNE 7 11 4 6 1003.5 - 0.4
26/08:00am 3.3 0.4 2.7 96 0.3 NNW 7 11 4 6 1003.7 - 0.2
26/07:30am 3.2 -0.4 2.8 97 0.2 NNW 11 17 6 9 1003.9 - 0.0
26/07:00am 3.5 0.4 3.4 99 0.0 NNW 9 15 5 8 1004.5 - 0.0
26/06:30am 3.5 -0.8 3.4 99 0.0 NW 15 20 8 11 1004.7 - 0.0
26/06:00am 3.4 -0.5 3.3 99 0.0 NNW 13 17 7 9 1005.1 1005.8 0.0
26/05:30am 3.7 -2.0 2.8 94 0.4 NNW 22 30 12 16 1005.2 - 0.0
26/05:00am 3.7 -1.7 2.7 93 0.4 NNW 20 30 11 16 1005.3 - 0.0
26/04:30am 3.9 -2.3 2.1 88 0.8 NNW 24 39 13 21 1005.5 - 0.0
26/04:00am 3.7 -2.5 2.4 91 0.6 NNW 24 33 13 18 1005.8 - 0.0
26/03:30am 4.0 -2.1 2.8 92 0.5 NW 24 33 13 18 1006.3 - 0.0
26/03:00am 4.1 -1.2 2.9 92 0.5 NNW 20 28 11 15 1006.9 1007.7 0.0
26/02:30am 4.4 -1.3 2.6 88 0.8 NNW 22 32 12 17 1007.1 - 0.0
26/02:00am 4.6 -1.2 2.5 86 0.9 NNW 22 32 12 17 1007.8 - 0.0
26/01:30am 4.5 0.4 2.5 87 0.9 NNW 13 24 7 13 1007.9 - 0.0
26/01:00am 4.8 -0.6 2.5 85 1.0 NNW 20 33 11 18 1008.3 - 0.0
26/12:30am 4.8 -1.0 2.5 85 1.0 NNW 22 32 12 17 1008.5 - 0.0
26/12:00am 4.7 1.0 2.4 85 1.0 NW 11 22 6 12 1009.2 1010.0 0.0
 
Date/Time
EST
Temp
°C
App
Temp
°C
Dew
Point
Rel
Hum
%
Delta-T
°C
Wind Press
QNH
hPa
Press
MSL
hPa
Rain
since 9 am
mm
Dir
 
Spd
km/h
Gust
km/h
Spd
kts
Gust
kts
25/11:30pm 4.7 0.7 2.6 86 0.9 N 13 26 7 14 1009.4 - 0.0
25/11:00pm 4.5 -1.2 2.7 88 0.8 NW 22 32 12 17 1009.3 - 0.0
25/10:30pm 4.1 -2.1 2.3 88 0.8 NW 24 37 13 20 1009.6 - 0.0
25/10:05pm 4.1 -2.5 2.1 87 0.9 NW 26 37 14 20 1009.8 - 0.0
25/10:04pm 4.1 -2.5 2.1 87 0.9 NW 26 37 14 20 1009.8 - 0.0
25/10:00pm 3.9 -3.1 1.9 87 0.9 NW 28 37 15 20 1010.0 - 0.0
25/09:46pm 3.8 -2.5 1.4 84 1.0 NW 24 33 13 18 1010.4 - 0.0
25/09:45pm 3.8 -2.5 1.4 84 1.0 NW 24 33 13 18 1010.4 - 0.0
25/09:30pm 3.4 -3.1 0.6 82 1.2 NNW 24 39 13 21 1010.2 - 0.0
25/09:00pm 3.3 -1.6 1.7 89 0.7 NNW 17 32 9 17 1010.8 1011.6 0.0
25/08:30pm 2.9 -2.6 1.6 91 0.5 NNW 20 37 11 20 1011.0 - 0.0
25/08:00pm 3.1 -3.2 1.5 89 0.7 NW 24 35 13 19 1011.0 - 0.0
25/07:30pm 3.5 -2.0 1.9 89 0.7 NNW 20 26 11 14 1011.0 - 0.0
25/07:00pm 3.7 -2.2 1.9 88 0.8 NNW 22 32 12 17 1011.3 - 0.0
25/06:30pm 3.7 -1.8 1.9 88 0.8 NW 20 33 11 18 1011.7 - 0.0
25/06:00pm 4.1 -1.8 1.6 84 1.1 NW 22 35 12 19 1012.1 1013.1 0.0
25/05:30pm 4.5 -1.5 1.0 78 1.5 NW 22 35 12 19 1012.5 - 0.0
25/05:00pm 4.6 -0.9 0.9 77 1.6 NW 19 28 10 15 1013.1 - 0.0
25/04:30pm 5.0 -0.6 0.9 75 1.7 NW 20 32 11 17 1012.8 - 0.0
25/04:00pm 4.9 -0.6 0.9 75 1.7 NW 19 32 10 17 1012.9 - 0.0
25/03:30pm 4.9 1.4 1.2 77 1.6 NNW 9 19 5 10 1012.9 - 0.0
25/03:00pm 5.0 0.0 1.3 77 1.6 NNW 17 28 9 15 1012.9 1013.9 0.0
25/02:31pm 5.2 -1.1 1.3 76 1.7 WNW 24 35 13 19 1012.8 - 0.0
25/02:30pm 5.2 -1.1 1.3 76 1.7 NW 24 35 13 19 1012.8 - 0.0
25/02:13pm 5.2 -0.4 1.3 76 1.7 NW 20 35 11 19 1012.6 - 0.0
25/02:12pm 5.2 -0.4 1.3 76 1.7 NW 20 35 11 19 1012.6 - 0.0
25/02:00pm 5.3 -0.1 1.4 76 1.7 NW 19 37 10 20 1013.0 - 0.0
25/01:30pm 5.5 0.0 1.6 76 1.7 NW 20 35 11 19 1013.4 - 0.0
25/01:05pm 6.1 0.2 1.6 73 2.0 NW 22 35 12 19 1013.7 - 0.0
25/01:04pm 6.1 0.2 1.6 73 2.0 NW 22 35 12 19 1013.7 - 0.0
25/01:00pm 6.3 0.4 1.6 72 2.1 NW 22 39 12 21 1013.7 - 0.0
25/12:50pm 6.3 1.6 1.2 70 2.2 NW 15 26 8 14 1013.8 - 0.0
25/12:49pm 6.3 1.6 1.2 70 2.2 NW 15 26 8 14 1013.8 - 0.0
25/12:30pm 6.2 0.6 0.9 69 2.3 WNW 20 35 11 19 1014.2 - 0.0
25/12:00pm 7.2 1.3 1.9 69 2.4 NW 22 35 12 19 1014.8 1015.9 0.0
25/11:30am 6.9 1.9 1.6 69 2.3 NW 17 26 9 14 1015.2 - 0.0
25/11:00am 6.7 2.9 1.8 71 2.2 NW 11 19 6 10 1015.9 - 0.0
25/10:30am 6.5 2.6 1.4 70 2.2 NW 11 17 6 9 1016.1 - 0.0
25/10:00am 6.3 2.1 1.8 73 2.0 NW 13 19 7 10 1016.0 - 0.0
25/09:30am 5.8 0.9 1.7 75 1.8 NW 17 28 9 15 1016.2 - 0.0
25/09:00am 4.9 0.1 -0.1 70 2.1 NW 15 20 8 11 1016.2 1017.3 0.0
25/08:30am 3.2 -1.2 -2.5 66 2.2 NNW 11 15 6 8 1016.4 - 0.0
25/08:00am 0.2 -5.2 -4.2 72 1.6 NW 15 17 8 9 1016.3 - 0.0
25/07:30am -1.4 -5.3 -6.7 67 1.7 WNW 6 7 3 4 1016.5 - 0.0
25/07:00am -1.5 -4.3 -7.0 66 1.7 CALM 0 4 0 2 1016.5 - 0.0
25/06:30am -1.5 -4.6 -6.2 70 1.5 W 2 6 1 3 1016.4 - 0.0
25/06:00am -0.4 -4.3 -6.8 62 2.1 ENE 6 11 3 6 1016.3 1017.4 0.0
25/05:30am 0.7 -3.8 -7.3 55 2.7 NNW 9 15 5 8 1016.5 - 0.0
25/05:00am -0.5 -5.2 -8.9 53 2.6 W 9 13 5 7 1016.4 - 0.0
25/04:30am 1.3 -4.5 -8.7 47 3.3 W 15 17 8 9 1016.2 - 0.0
25/04:00am 2.4 -3.8 -9.5 41 3.9 W 17 20 9 11 1016.0 - 0.0
25/03:30am -0.3 -5.8 -9.7 49 2.9 W 13 15 7 8 1016.0 - 0.0
25/03:00am -1.1 -6.2 -9.0 55 2.4 W 11 13 6 7 1016.2 1017.3 0.0
25/02:30am 1.3 -4.5 -9.0 46 3.3 W 15 17 8 9 1016.8 - 0.0
25/02:00am 0.9 -4.5 -8.6 49 3.1 W 13 15 7 8 1016.8 - 0.0
25/01:30am -1.7 -7.1 -8.6 59 2.1 WNW 13 15 7 8 1017.1 - 0.0
25/01:00am -0.1 -5.7 -6.9 60 2.2 WNW 15 17 8 9 1017.2 - 0.0
25/12:30am -2.8 -7.3 -7.1 72 1.2 W 9 11 5 6 1017.3 - 0.0
25/12:00am -1.8 -5.9 -6.9 68 1.6 W 7 9 4 5 1017.8 1018.9 0.0
 
Date/Time
EST
Temp
°C
App
Temp
°C
Dew
Point
Rel
Hum
%
Delta-T
°C
Wind Press
QNH
hPa
Press
MSL
hPa
Rain
since 9 am
mm
Dir
 
Spd
km/h
Gust
km/h
Spd
kts
Gust
kts
24/11:30pm -0.8 -4.7 -6.7 64 1.9 WNW 6 7 3 4 1018.0 - 0.0
24/11:00pm 0.4 -3.3 -4.8 68 1.8 WNW 6 7 3 4 1018.2 - 0.0
24/10:30pm 2.0 -1.8 -5.6 57 2.8 NW 6 9 3 5 1018.5 - 0.0
24/10:00pm 2.4 -1.8 -4.3 61 2.6 SW 9 17 5 9 1018.8 - 0.0
24/09:30pm 2.9 -0.8 -3.0 65 2.2 S 7 11 4 6 1018.7 - 0.0
24/09:00pm 2.1 -0.9 -2.2 73 1.6 SW 4 7 2 4 1018.8 1020.0 0.0
24/08:30pm 1.3 -1.9 -0.8 86 0.8 W 6 11 3 6 1018.8 - 0.0
24/08:00pm 0.9 -2.1 -1.7 83 1.0 WSW 4 7 2 4 1018.7 - 0.0
24/07:30pm 1.0 -2.3 -1.6 83 1.0 WSW 6 7 3 4 1018.7 - 0.0
24/07:00pm 2.2 -0.9 -2.3 72 1.7 S 4 9 2 5 1018.2 - 0.0
24/06:30pm 4.1 0.2 -1.3 68 2.1 W 9 15 5 8 1018.2 - 0.0
24/06:00pm 4.0 -0.7 -1.6 67 2.2 W 13 19 7 10 1017.9 1019.0 0.0
24/05:30pm 4.9 -0.4 -0.9 66 2.4 W 17 22 9 12 1017.6 - 0.0
24/05:00pm 5.3 0.8 -0.3 67 2.3 W 13 19 7 10 1017.3 - 0.0
24/04:30pm 6.6 1.0 -0.1 62 2.8 W 19 30 10 16 1017.1 - 0.0
24/04:00pm 7.5 1.8 -0.5 57 3.4 W 19 24 10 13 1017.2 - 0.0
24/03:30pm 8.1 3.1 -0.9 53 3.8 W 15 28 8 15 1017.1 - 0.0
24/03:00pm 9.0 4.1 -0.3 52 4.0 W 15 22 8 12 1017.0 1018.1 0.0
24/02:30pm 8.6 3.3 -0.9 51 4.0 WSW 17 28 9 15 1016.8 - 0.0
24/02:00pm 8.8 3.1 -1.0 50 4.1 W 19 30 10 16 1016.8 - 0.0
24/01:30pm 8.7 3.4 -0.6 52 3.9 WSW 17 28 9 15 1016.9 - 0.0
24/01:00pm 8.6 3.2 -1.5 49 4.2 WSW 17 26 9 14 1017.2 - 0.0
24/12:30pm 8.5 3.1 -1.3 50 4.1 WSW 17 28 9 15 1017.3 - 0.0
24/12:00pm 7.7 1.9 -1.3 53 3.7 WSW 19 30 10 16 1017.3 1018.4 0.0
24/11:30am 7.4 1.1 -1.3 54 3.6 WSW 22 35 12 19 1017.6 - 0.0
24/11:00am 7.2 1.1 0.2 61 3.0 W 22 33 12 18 1017.8 - 0.0
24/10:30am 6.5 0.7 0.0 63 2.7 W 20 33 11 18 1018.0 - 0.0
24/10:00am 5.3 -0.9 -0.1 68 2.2 WSW 22 39 12 21 1018.0 - 0.0
24/09:30am 4.7 -1.9 -0.1 71 2.0 W 24 39 13 21 1017.9 - 0.0
24/09:00am 4.0 -2.6 -0.6 72 1.9 W 24 39 13 21 1017.7 1018.8 0.0
24/08:30am 3.3 -3.0 -0.7 75 1.6 W 22 39 12 21 1017.3 - 0.0
24/08:00am 2.7 -3.5 -0.6 79 1.3 W 22 37 12 20 1017.4 - 0.0
24/07:30am 1.9 -4.8 -0.8 82 1.1 W 24 37 13 20 1017.3 - 0.0
24/07:00am 1.5 -4.5 -1.7 79 1.2 W 20 30 11 16 1017.1 - 0.0
24/06:30am 1.3 -4.6 -1.9 79 1.2 W 19 28 10 15 1017.1 - 0.0
24/06:00am 1.0 -3.8 -2.2 79 1.3 W 13 19 7 10 1017.0 1018.1 0.0
24/05:30am 1.0 -3.7 -1.9 81 1.2 W 13 22 7 12 1016.9 - 0.0
24/05:00am 1.1 -3.6 -1.6 82 1.0 W 13 19 7 10 1016.7 - 0.0
24/04:30am 1.0 -2.5 -1.7 82 1.1 WSW 7 13 4 7 1016.5 - 0.0
24/04:00am 1.8 -2.4 -0.9 82 1.1 W 11 19 6 10 1016.4 - 0.0
24/03:30am 2.0 -3.7 -0.9 81 1.1 W 19 26 10 14 1016.5 - 0.0
24/03:00am 2.1 -2.8 -0.2 85 0.9 W 15 22 8 12 1016.9 1018.0 0.0
24/02:30am 2.4 -2.0 0.1 85 0.9 WSW 13 20 7 11 1017.1 - 0.0
24/02:00am 3.0 -1.3 1.1 87 0.8 W 13 22 7 12 1017.1 - 0.0
24/01:30am 3.0 -0.9 1.4 89 0.7 W 11 20 6 11 1017.1 - 0.0
24/01:00am 3.0 -0.8 1.7 91 0.6 WNW 11 20 6 11 1017.2 - 0.0
24/12:30am 3.2 0.2 1.9 91 0.6 W 7 15 4 8 1017.4 - 0.0
24/12:00am 3.2 -0.2 1.7 90 0.6 WNW 9 22 5 12 1017.3 1018.4 0.0
 
Date/Time
EST
Temp
°C
App
Temp
°C
Dew
Point
Rel
Hum
%
Delta-T
°C
Wind Press
QNH
hPa
Press
MSL
hPa
Rain
since 9 am
mm
Dir
 
Spd
km/h
Gust
km/h
Spd
kts
Gust
kts
23/11:30pm 3.0 -0.5 1.5 90 0.6 W 9 19 5 10 1017.4 - 0.0
23/11:00pm 3.1 -1.1 1.5 89 0.7 WNW 13 24 7 13 1017.3 - 0.0
23/10:30pm 2.9 -2.2 0.8 86 0.9 W 17 24 9 13 1017.3 - 0.0
23/10:00pm 2.8 -2.7 0.9 87 0.8 WNW 19 33 10 18 1017.3 - 0.0
23/09:30pm 3.0 -2.1 0.9 86 0.9 WNW 17 30 9 16 1017.8 - 0.0
23/09:00pm 2.8 -2.6 1.0 88 0.7 NW 19 22 10 12 1017.6 1018.7 0.0

Other Formats:

Comma delimited format used in spreadsheet applications
http://www.bom.gov.au/fwo/IDV60801/IDV60801.94905.axf

JavaScript Object Notation format (JSON) in row-major order
http://www.bom.gov.au/fwo/IDV60801/IDV60801.94905.json